Time;durP1;ratioP1;P1;durP2;ratioP2;P2;SDS_P1;SDS_P2;PMS_P1;PMS_P2;Temp;Humidity;BMP_temperature;BMP_pressure;BME280_temperature;BME280_humidity;BME280_pressure;Samples;Min_cycle;Max_cycle;Signal;HPM_P1;HPM_P2
2022/07/29 00:00:14;;;;;;;2.08;0.90;;;17.10;99.90;;;;;;4838811;29;20030;-39
2022/07/29 00:02:39;;;;;;;0.53;0.53;;;17.10;99.90;;;;;;4842045;29;20549;-38
2022/07/29 00:05:05;;;;;;;4.65;1.00;;;17.10;99.90;;;;;;4839172;29;20045;-48
2022/07/29 00:07:31;;;;;;;3.67;1.08;;;17.00;99.90;;;;;;4823381;29;20570;-32
2022/07/29 00:09:57;;;;;;;2.83;0.82;;;17.00;99.90;;;;;;4837495;29;20419;-38
2022/07/29 00:12:24;;;;;;;0.80;0.60;;;16.90;99.90;;;;;;4841556;29;20042;-39
2022/07/29 00:14:50;;;;;;;0.60;0.60;;;16.90;99.90;;;;;;4837972;29;20036;-33
2022/07/29 00:17:16;;;;;;;3.17;0.90;;;16.80;99.90;;;;;;4838079;29;20117;-38
2022/07/29 00:19:41;;;;;;;2.85;1.35;;;16.80;99.90;;;;;;4836953;29;20040;-37
2022/07/29 00:22:07;;;;;;;4.07;0.70;;;16.80;99.90;;;;;;4841932;29;20030;-39
2022/07/29 00:24:33;;;;;;;6.38;1.10;;;16.80;99.90;;;;;;4839591;29;20030;-37
2022/07/29 00:26:58;;;;;;;3.63;0.95;;;16.80;99.90;;;;;;4833403;29;20141;-32
2022/07/29 00:29:24;;;;;;;4.72;0.95;;;16.70;99.90;;;;;;4840937;29;20524;-47
2022/07/29 00:31:50;;;;;;;1.02;0.70;;;16.60;99.90;;;;;;4845753;29;20116;-36
2022/07/29 00:37:00;;;;;;;1.40;0.82;;;16.60;99.90;;;;;;4828315;29;20064;-37
2022/07/29 00:39:25;;;;;;;1.00;0.65;;;16.60;99.90;;;;;;4839307;29;20041;-37
2022/07/29 00:41:51;;;;;;;3.55;1.35;;;16.70;99.90;;;;;;4836674;29;20056;-31
2022/07/29 00:44:17;;;;;;;5.53;1.27;;;16.60;99.90;;;;;;4836939;29;20507;-35
2022/07/29 00:46:42;;;;;;;1.52;0.70;;;16.60;99.90;;;;;;4840492;29;20045;-32
2022/07/29 00:49:08;;;;;;;1.27;0.75;;;16.60;99.90;;;;;;4834644;29;20391;-37
2022/07/29 00:51:37;;;;;;;1.58;0.90;;;16.60;99.90;;;;;;4820399;29;20034;-36
2022/07/29 00:54:22;;;;;;;2.88;0.57;;;16.60;99.90;;;;;;4838880;29;20483;-41
2022/07/29 00:56:47;;;;;;;1.77;1.00;;;16.60;99.90;;;;;;4835789;29;20387;-38
2022/07/29 00:59:13;;;;;;;1.95;0.40;;;16.60;99.90;;;;;;4837604;29;20029;-40
2022/07/29 01:01:39;;;;;;;1.60;0.90;;;16.60;99.90;;;;;;4839534;29;20029;-34
2022/07/29 01:04:06;;;;;;;1.85;0.73;;;16.60;99.90;;;;;;4834939;29;20124;-39
2022/07/29 01:06:31;;;;;;;3.30;0.50;;;16.60;99.90;;;;;;4837750;29;20097;-39
2022/07/29 01:08:58;;;;;;;1.00;0.70;;;16.70;99.90;;;;;;4840545;29;20041;-42
2022/07/29 01:11:24;;;;;;;1.00;0.80;;;16.70;99.90;;;;;;4842485;29;20034;-40
2022/07/29 01:13:50;;;;;;;3.97;0.63;;;16.60;99.90;;;;;;4835492;29;20049;-35
2022/07/29 01:16:25;;;;;;;0.60;0.60;;;16.60;99.90;;;;;;4836592;29;20514;-34
2022/07/29 01:18:58;;;;;;;1.05;0.68;;;16.60;99.90;;;;;;4837647;29;20471;-42
2022/07/29 01:21:51;;;;;;;1.60;0.88;;;16.50;99.90;;;;;;4835175;29;20885;-35
2022/07/29 01:24:41;;;;;;;3.70;0.60;;;16.50;99.90;;;;;;4836070;29;20140;-43
2022/07/29 01:27:55;;;;;;;3.35;0.80;;;16.50;99.90;;;;;;4841085;29;20110;-36
2022/07/29 01:30:24;;;;;;;1.23;0.60;;;16.40;99.90;;;;;;4828776;29;20534;-38
2022/07/29 01:32:59;;;;;;;3.85;0.93;;;16.50;99.90;;;;;;4838245;29;20037;-37
2022/07/29 01:35:45;;;;;;;3.38;0.73;;;16.50;99.90;;;;;;4840479;29;20502;-39
2022/07/29 01:38:21;;;;;;;1.48;0.88;;;16.50;99.90;;;;;;4837082;29;20045;-38
2022/07/29 01:40:54;;;;;;;1.02;0.90;;;16.50;99.90;;;;;;4834528;29;20514;-33
2022/07/29 01:43:26;;;;;;;0.95;0.75;;;16.60;99.90;;;;;;4836843;29;20082;-36
2022/07/29 01:46:06;;;;;;;4.22;1.27;;;16.50;99.90;;;;;;4837916;29;20026;-32
2022/07/29 01:49:23;;;;;;;2.15;0.73;;;16.50;99.90;;;;;;4823442;29;20074;-38
2022/07/29 01:51:54;;;;;;;1.40;0.80;;;16.50;99.90;;;;;;4811391;29;20065;-36
2022/07/29 01:54:45;;;;;;;1.85;0.85;;;16.50;99.90;;;;;;4839707;29;20089;-38
2022/07/29 01:57:14;;;;;;;1.25;0.80;;;16.50;99.90;;;;;;4836640;29;20120;-36
2022/07/29 01:59:42;;;;;;;1.20;0.88;;;16.40;99.90;;;;;;4836597;29;20079;-40
2022/07/29 02:02:10;;;;;;;1.92;0.75;;;16.40;99.90;;;;;;4838782;29;20029;-37
2022/07/29 02:04:37;;;;;;;1.27;1.17;;;16.50;99.90;;;;;;4828141;29;20417;-32
2022/07/29 02:07:10;;;;;;;;;;;16.50;99.90;;;;;;4835256;29;20037;-44
2022/07/29 02:09:37;;;;;;;1.15;0.95;;;16.50;99.90;;;;;;4837494;29;19923;-35
2022/07/29 02:12:05;;;;;;;3.22;0.80;;;16.40;99.90;;;;;;4836600;29;20471;-37
2022/07/29 02:14:36;;;;;;;2.47;0.80;;;16.40;99.90;;;;;;4839454;29;20030;-37
2022/07/29 02:17:02;;;;;;;2.53;1.30;;;16.40;99.90;;;;;;4837067;29;20037;-37
2022/07/29 02:19:31;;;;;;;5.95;0.82;;;16.30;99.90;;;;;;4818039;29;20030;-38
2022/07/29 02:21:58;;;;;;;2.50;1.63;;;16.30;99.90;;;;;;4833632;29;20487;-34
2022/07/29 02:24:25;;;;;;;2.42;0.90;;;16.30;99.90;;;;;;4832622;29;20513;-39
2022/07/29 02:26:53;;;;;;;5.15;1.23;;;16.30;99.90;;;;;;4835237;29;20034;-33
2022/07/29 02:29:23;;;;;;;3.35;0.93;;;16.20;99.90;;;;;;4840741;29;20553;-33
2022/07/29 02:31:50;;;;;;;3.60;1.25;;;16.20;99.90;;;;;;4841072;29;20498;-36
2022/07/29 02:34:18;;;;;;;2.05;0.95;;;16.20;99.90;;;;;;4838594;29;20034;-38
2022/07/29 02:36:45;;;;;;;9.57;1.20;;;16.20;99.90;;;;;;4824629;29;20045;-35
2022/07/29 02:39:14;;;;;;;8.30;1.23;;;16.20;99.90;;;;;;4838267;29;20048;-36
2022/07/29 02:41:47;;;;;;;1.27;0.90;;;16.20;99.90;;;;;;4837681;29;20633;-34
2022/07/29 02:44:16;;;;;;;1.77;0.90;;;16.10;99.90;;;;;;4816723;29;20037;-33
2022/07/29 02:47:21;;;;;;;1.23;0.90;;;16.10;99.90;;;;;;4827319;29;20041;-33
2022/07/29 02:49:53;;;;;;;3.47;1.27;;;16.10;99.90;;;;;;4842107;29;20061;-41
2022/07/29 02:52:27;;;;;;;2.55;1.02;;;16.10;99.90;;;;;;4835890;29;20920;-34
2022/07/29 02:55:01;;;;;;;1.88;1.10;;;16.10;99.90;;;;;;4842068;29;20543;-35
2022/07/29 02:57:40;;;;;;;3.53;1.10;;;16.10;99.90;;;;;;4840755;29;20459;-33
2022/07/29 03:00:09;;;;;;;1.75;1.10;;;16.10;99.90;;;;;;4842144;29;20061;-33
2022/07/29 03:02:41;;;;;;;1.52;1.10;;;16.10;99.90;;;;;;4820899;29;20495;-37
2022/07/29 03:05:15;;;;;;;1.83;1.25;;;16.10;99.90;;;;;;4839124;29;20117;-37
2022/07/29 03:07:43;;;;;;;5.40;1.38;;;16.10;99.90;;;;;;4838583;29;20078;-35
2022/07/29 03:10:09;;;;;;;4.35;1.40;;;16.10;99.90;;;;;;4837279;29;20034;-34
2022/07/29 03:12:35;;;;;;;5.50;1.13;;;16.10;99.90;;;;;;4835514;29;20166;-35
2022/07/29 03:15:02;;;;;;;4.05;1.10;;;16.20;99.90;;;;;;4841640;29;20034;-39
2022/07/29 03:17:27;;;;;;;1.33;1.23;;;16.20;99.90;;;;;;4842287;29;20563;-38
2022/07/29 03:19:54;;;;;;;1.73;0.85;;;16.10;99.90;;;;;;4817252;29;20089;-40
2022/07/29 03:22:20;;;;;;;1.00;1.00;;;16.00;99.90;;;;;;4835927;29;20486;-36
2022/07/29 03:24:46;;;;;;;1.33;1.23;;;16.00;99.90;;;;;;4841362;29;20099;-37
2022/07/29 03:27:12;;;;;;;2.60;0.90;;;16.00;99.90;;;;;;4836399;29;20044;-32
2022/07/29 03:29:37;;;;;;;1.83;1.25;;;16.00;99.90;;;;;;4840271;29;20470;-41
2022/07/29 03:32:05;;;;;;;4.65;1.20;;;16.00;99.90;;;;;;4820784;29;20113;-41
2022/07/29 03:34:31;;;;;;;5.70;0.80;;;16.10;99.90;;;;;;4840933;29;20033;-37
2022/07/29 03:36:57;;;;;;;3.08;1.13;;;16.10;99.90;;;;;;4834968;29;20034;-40
2022/07/29 03:39:27;;;;;;;3.08;1.00;;;16.00;99.90;;;;;;4835767;29;20046;-37
2022/07/29 03:41:56;;;;;;;1.42;1.08;;;16.00;99.90;;;;;;4834939;29;20482;-40
2022/07/29 03:44:23;;;;;;;2.53;1.38;;;16.00;99.90;;;;;;4819819;29;20110;-37
2022/07/29 03:46:51;;;;;;;3.40;1.98;;;15.90;99.90;;;;;;4817993;29;20042;-40
2022/07/29 03:49:19;;;;;;;6.57;1.38;;;15.90;99.90;;;;;;4839287;29;20495;-34
2022/07/29 03:51:45;;;;;;;2.88;1.70;;;16.00;99.90;;;;;;4837768;29;20070;-36
2022/07/29 03:54:11;;;;;;;1.40;1.05;;;15.90;99.90;;;;;;4840870;29;20055;-40
2022/07/29 03:56:46;;;;;;;2.15;1.02;;;15.90;99.90;;;;;;4835254;29;20149;-37
2022/07/29 03:59:13;;;;;;;1.00;1.00;;;16.00;99.90;;;;;;4842735;29;20847;-35
2022/07/29 04:01:39;;;;;;;1.23;1.00;;;16.00;99.90;;;;;;4839242;29;20030;-39
2022/07/29 04:04:05;;;;;;;1.60;1.50;;;16.00;99.90;;;;;;4843966;29;20044;-40
2022/07/29 04:06:44;;;;;;;8.05;0.90;;;16.00;99.90;;;;;;4835937;29;20025;-37
2022/07/29 04:09:10;;;;;;;3.67;1.10;;;16.00;99.90;;;;;;4838678;29;20064;-38
2022/07/29 04:11:38;;;;;;;1.90;1.27;;;16.00;99.90;;;;;;4834978;29;20034;-38
2022/07/29 04:14:03;;;;;;;;;;;16.00;99.90;;;;;;4824827;29;20953;-42
2022/07/29 04:16:29;;;;;;;2.38;1.30;;;15.90;99.90;;;;;;4837830;29;19935;-39
2022/07/29 04:18:55;;;;;;;1.20;1.10;;;15.90;99.90;;;;;;4838685;29;20053;-34
2022/07/29 04:21:20;;;;;;;4.57;1.35;;;15.90;99.90;;;;;;4838652;29;20502;-41
2022/07/29 04:23:49;;;;;;;2.85;1.10;;;15.90;99.90;;;;;;4837207;29;20021;-37
2022/07/29 04:26:16;;;;;;;3.00;0.80;;;15.90;99.90;;;;;;4836922;29;20034;-37
2022/07/29 04:28:42;;;;;;;3.80;1.23;;;15.90;99.90;;;;;;4841171;29;20025;-33
2022/07/29 04:31:08;;;;;;;2.42;1.77;;;15.90;99.90;;;;;;4837955;29;20533;-41
2022/07/29 04:33:34;;;;;;;1.50;1.40;;;15.80;99.90;;;;;;4840014;29;20141;-34
2022/07/29 04:35:59;;;;;;;2.80;1.27;;;15.80;99.90;;;;;;4819112;29;20402;-35
2022/07/29 04:38:25;;;;;;;1.63;1.40;;;15.80;99.90;;;;;;4840369;29;20029;-36
2022/07/29 04:40:50;;;;;;;5.45;1.30;;;15.80;99.90;;;;;;4836215;29;20033;-37
2022/07/29 04:43:16;;;;;;;2.83;1.35;;;15.80;99.90;;;;;;4840690;29;20401;-37
2022/07/29 04:45:42;;;;;;;4.38;1.45;;;15.80;99.90;;;;;;4816837;29;20419;-38
2022/07/29 04:48:07;;;;;;;1.77;1.55;;;15.90;99.90;;;;;;4839818;29;20483;-37
2022/07/29 04:50:33;;;;;;;2.10;1.30;;;15.90;99.90;;;;;;4834230;29;20033;-40
2022/07/29 04:52:59;;;;;;;1.77;1.20;;;15.80;99.90;;;;;;4839929;29;20124;-36
2022/07/29 04:55:25;;;;;;;2.65;1.35;;;15.90;99.90;;;;;;4836468;29;20045;-43
2022/07/29 04:57:50;;;;;;;2.78;1.88;;;15.90;99.90;;;;;;4836892;29;20415;-36
2022/07/29 05:00:16;;;;;;;7.10;1.23;;;16.00;99.90;;;;;;4840516;29;20026;-36
2022/07/29 05:02:43;;;;;;;5.53;1.77;;;16.00;99.90;;;;;;4836375;29;20040;-34
2022/07/29 05:05:08;;;;;;;8.38;1.88;;;16.10;99.90;;;;;;4839550;29;20383;-36
2022/07/29 05:07:34;;;;;;;1.90;1.33;;;16.10;99.90;;;;;;4831084;29;20041;-40
2022/07/29 05:10:00;;;;;;;3.70;1.50;;;16.00;99.90;;;;;;4839211;29;20037;-37
2022/07/29 05:12:25;;;;;;;2.35;1.20;;;16.00;99.90;;;;;;4835554;29;20146;-40
2022/07/29 05:14:51;;;;;;;2.30;1.00;;;16.10;99.90;;;;;;4834520;29;20033;-38
2022/07/29 05:17:17;;;;;;;3.10;1.35;;;16.10;99.90;;;;;;4843532;29;20100;-35
2022/07/29 05:19:43;;;;;;;1.58;1.20;;;16.10;99.90;;;;;;4846419;29;20025;-34
2022/07/29 05:22:09;;;;;;;4.07;1.42;;;16.10;99.90;;;;;;4851730;29;20040;-41
2022/07/29 05:24:34;;;;;;;3.22;1.10;;;16.10;99.90;;;;;;4848287;29;20100;-38
2022/07/29 05:27:00;;;;;;;2.88;1.02;;;16.10;99.90;;;;;;4846461;29;20068;-36
2022/07/29 05:29:26;;;;;;;2.00;1.00;;;16.10;99.90;;;;;;4835807;29;20034;-41
2022/07/29 05:31:52;;;;;;;1.55;0.80;;;16.00;99.90;;;;;;4834656;29;20536;-38
2022/07/29 05:34:18;;;;;;;1.35;1.20;;;16.10;99.90;;;;;;4839250;29;20049;-36
2022/07/29 05:36:45;;;;;;;5.63;1.20;;;16.00;99.90;;;;;;4833894;29;20574;-35
2022/07/29 05:39:11;;;;;;;1.75;1.20;;;16.10;99.90;;;;;;4846216;29;20586;-38
2022/07/29 05:41:36;;;;;;;6.05;1.40;;;16.10;99.90;;;;;;4839790;29;20026;-40
2022/07/29 05:44:02;;;;;;;2.97;1.70;;;16.10;99.90;;;;;;4843968;29;20035;-38
2022/07/29 05:46:28;;;;;;;2.17;1.63;;;16.20;99.90;;;;;;4846874;29;20049;-38
2022/07/29 05:48:53;;;;;;;1.20;1.10;;;16.20;99.90;;;;;;4852783;29;20025;-33
2022/07/29 05:51:19;;;;;;;2.15;1.30;;;16.20;99.90;;;;;;4827596;29;20056;-40
2022/07/29 05:53:44;;;;;;;1.58;1.35;;;16.30;99.90;;;;;;4836793;29;20021;-38
2022/07/29 05:56:10;;;;;;;4.60;1.20;;;16.30;99.90;;;;;;4835889;29;20018;-35
2022/07/29 05:58:36;;;;;;;2.42;1.50;;;16.40;99.90;;;;;;4832729;29;22148;-37
2022/07/29 06:01:02;;;;;;;3.80;1.42;;;16.50;99.90;;;;;;4833760;29;20104;-39
2022/07/29 06:03:28;;;;;;;1.40;1.10;;;16.50;99.90;;;;;;4834528;29;20034;-35
2022/07/29 06:05:53;;;;;;;1.83;1.38;;;16.60;99.90;;;;;;4836129;29;22114;-35
2022/07/29 06:08:19;;;;;;;5.43;1.10;;;16.70;99.90;;;;;;4834113;29;20030;-36
2022/07/29 06:10:45;;;;;;;2.95;1.50;;;16.80;99.90;;;;;;4836274;29;20201;-40
2022/07/29 06:13:11;;;;;;;5.45;1.50;;;16.90;99.90;;;;;;4834657;29;20068;-44
2022/07/29 06:15:38;;;;;;;6.03;1.48;;;17.10;99.90;;;;;;4841205;29;20487;-34
2022/07/29 06:18:07;;;;;;;1.20;1.10;;;17.50;99.90;;;;;;4839728;29;20029;-41
2022/07/29 06:20:32;;;;;;;5.45;1.25;;;18.10;99.90;;;;;;4833553;29;20038;-37
2022/07/29 06:22:59;;;;;;;3.13;1.20;;;18.10;99.90;;;;;;4837977;29;20034;-37
2022/07/29 06:25:26;;;;;;;2.38;1.20;;;18.40;99.90;;;;;;4840508;29;20033;-36
2022/07/29 06:27:52;;;;;;;1.30;1.20;;;19.30;99.90;;;;;;4836688;29;20478;-39
2022/07/29 06:30:18;;;;;;;4.95;1.20;;;20.00;99.90;;;;;;4837504;29;20100;-38
2022/07/29 06:32:43;;;;;;;4.53;1.60;;;20.50;99.90;;;;;;4835219;29;20229;-36
2022/07/29 06:35:09;;;;;;;5.47;1.42;;;20.70;99.90;;;;;;4837321;29;20513;-37
2022/07/29 06:37:35;;;;;;;4.97;1.00;;;20.70;99.90;;;;;;4832034;29;20034;-38
2022/07/29 06:42:44;;;;;;;1.77;1.20;;;23.00;99.30;;;;;;4830033;29;20395;-38
2022/07/29 06:45:13;;;;;;;2.28;1.00;;;24.00;97.50;;;;;;4837114;29;20021;-35
2022/07/29 06:47:38;;;;;;;2.30;1.58;;;24.00;97.40;;;;;;4831837;29;20253;-32
2022/07/29 06:50:23;;;;;;;2.25;1.20;;;24.00;97.20;;;;;;4837689;29;20236;-32
2022/07/29 06:52:49;;;;;;;1.63;1.42;;;23.30;97.20;;;;;;4833315;29;20046;-41
2022/07/29 06:55:14;;;;;;;1.92;1.30;;;22.30;98.40;;;;;;4840545;29;20473;-38
2022/07/29 06:57:40;;;;;;;3.05;1.13;;;21.40;99.20;;;;;;4815206;29;20064;-42
2022/07/29 07:00:07;;;;;;;2.83;1.27;;;20.50;99.90;;;;;;4839699;29;20518;-35
2022/07/29 07:02:32;;;;;;;1.20;1.10;;;19.90;99.90;;;;;;4839387;29;20327;-35
2022/07/29 07:04:58;;;;;;;3.20;1.85;;;19.40;99.90;;;;;;4837400;29;20283;-36
2022/07/29 07:07:24;;;;;;;2.75;1.50;;;18.90;99.90;;;;;;4846632;29;20033;-38
2022/07/29 07:09:50;;;;;;;2.65;1.30;;;18.80;99.90;;;;;;4829930;29;20038;-32
2022/07/29 07:12:15;;;;;;;2.42;1.00;;;18.80;99.90;;;;;;4838007;29;20029;-34
2022/07/29 07:14:41;;;;;;;1.38;1.10;;;18.80;99.90;;;;;;4844547;29;20025;-34
2022/07/29 07:17:07;;;;;;;3.38;1.73;;;19.40;99.90;;;;;;4832775;29;20026;-36
2022/07/29 07:19:33;;;;;;;3.92;1.38;;;19.70;99.90;;;;;;4834556;29;20029;-37
2022/07/29 07:21:58;;;;;;;1.63;1.52;;;20.60;99.90;;;;;;4831495;29;20069;-70
2022/07/29 07:24:25;;;;;;;3.88;1.42;;;21.30;99.90;;;;;;4839170;29;20032;-36
2022/07/29 07:26:50;;;;;;;1.58;1.38;;;21.90;99.90;;;;;;4833461;29;20052;-38
2022/07/29 07:29:16;;;;;;;5.90;1.63;;;21.70;99.80;;;;;;4833679;29;20033;-39
2022/07/29 07:31:42;;;;;;;4.00;1.70;;;21.30;99.90;;;;;;4830495;29;20399;-34
2022/07/29 07:34:08;;;;;;;1.38;1.17;;;21.00;99.90;;;;;;4829968;29;20571;-33
2022/07/29 07:36:33;;;;;;;4.25;1.38;;;20.70;99.90;;;;;;4834523;29;20049;-39
2022/07/29 07:38:59;;;;;;;4.25;0.95;;;20.70;99.90;;;;;;4836429;29;20049;-39
2022/07/29 07:41:28;;;;;;;1.45;1.20;;;20.80;99.90;;;;;;4835301;29;20117;-38
2022/07/29 07:43:53;;;;;;;2.72;1.40;;;20.80;99.90;;;;;;4836929;29;20029;-40
2022/07/29 07:46:19;;;;;;;3.67;1.30;;;20.60;99.90;;;;;;4842799;29;20086;-42
2022/07/29 07:48:44;;;;;;;1.67;0.80;;;20.40;99.90;;;;;;4842452;29;20654;-35
2022/07/29 07:51:10;;;;;;;3.67;1.42;;;20.80;99.90;;;;;;4835126;29;20479;-35
2022/07/29 07:53:36;;;;;;;7.38;1.48;;;21.00;99.90;;;;;;4831746;29;20090;-36
2022/07/29 07:56:02;;;;;;;2.30;1.48;;;21.10;99.90;;;;;;4833863;29;20154;-33
2022/07/29 07:58:27;;;;;;;4.93;1.60;;;21.10;99.90;;;;;;4815197;29;20483;-33
2022/07/29 08:00:53;;;;;;;10.00;1.55;;;21.00;99.90;;;;;;4836617;29;20152;-34
2022/07/29 08:03:19;;;;;;;2.53;1.40;;;20.70;99.90;;;;;;4835842;29;20085;-39
2022/07/29 08:05:46;;;;;;;3.63;1.50;;;20.70;99.90;;;;;;4840883;29;20048;-37
2022/07/29 08:08:11;;;;;;;3.22;1.10;;;20.50;99.90;;;;;;4850920;29;20033;-39
2022/07/29 08:10:52;;;;;;;6.32;1.75;;;20.40;99.90;;;;;;4837818;29;20595;-36
2022/07/29 08:13:20;;;;;;;3.15;2.10;;;20.40;99.90;;;;;;4842056;29;20418;-41
2022/07/29 08:15:45;;;;;;;1.80;1.52;;;20.50;99.90;;;;;;4849260;29;20025;-39
2022/07/29 08:18:14;;;;;;;3.22;1.25;;;20.50;99.90;;;;;;4835573;29;20095;-54
2022/07/29 08:20:40;;;;;;;1.15;1.05;;;20.60;99.90;;;;;;4838365;29;20041;-37
2022/07/29 08:23:08;;;;;;;2.80;1.17;;;20.80;99.90;;;;;;4832331;29;20044;-38
2022/07/29 08:25:35;;;;;;;0.93;0.93;;;21.00;99.90;;;;;;4834628;29;20511;-33
2022/07/29 08:28:01;;;;;;;;;;;21.20;99.90;;;;;;4836593;29;20030;-36
2022/07/29 08:30:27;;;;;;;3.28;1.58;;;21.50;99.90;;;;;;4834492;29;19916;-34
2022/07/29 08:32:52;;;;;;;1.42;1.30;;;21.50;99.90;;;;;;4829125;29;20048;-36
2022/07/29 08:35:19;;;;;;;1.40;1.30;;;21.60;99.90;;;;;;4834256;29;20072;-39
2022/07/29 08:37:45;;;;;;;11.52;1.63;;;21.70;99.90;;;;;;4837273;29;20476;-38
2022/07/29 08:40:11;;;;;;;3.78;1.23;;;21.90;99.90;;;;;;4829940;29;20076;-36
2022/07/29 08:42:37;;;;;;;4.78;1.63;;;22.00;99.90;;;;;;4836885;29;20542;-38
2022/07/29 08:45:05;;;;;;;7.03;1.67;;;22.40;99.90;;;;;;4836775;29;20044;-35
2022/07/29 08:47:30;;;;;;;2.08;1.88;;;22.60;99.70;;;;;;4840801;29;20148;-36
2022/07/29 08:49:56;;;;;;;1.40;1.30;;;22.80;99.40;;;;;;4834790;29;20037;-38
2022/07/29 08:52:25;;;;;;;6.00;1.30;;;22.50;99.60;;;;;;4835411;29;20045;-39
2022/07/29 08:54:52;;;;;;;2.78;1.75;;;22.20;99.90;;;;;;4834996;29;20030;-40
2022/07/29 08:57:19;;;;;;;1.60;1.27;;;21.90;99.80;;;;;;4835289;29;20570;-35
2022/07/29 08:59:46;;;;;;;2.78;1.30;;;21.80;99.90;;;;;;4832553;29;20137;-37
2022/07/29 09:02:19;;;;;;;4.57;2.10;;;21.50;99.90;;;;;;4807619;29;20563;-34
2022/07/29 09:04:45;;;;;;;6.30;1.45;;;21.40;99.90;;;;;;4836889;29;20037;-36
2022/07/29 09:07:15;;;;;;;3.80;1.52;;;21.40;99.90;;;;;;4816484;29;20025;-40
2022/07/29 09:09:42;;;;;;;1.60;1.48;;;21.50;99.90;;;;;;4837472;29;20029;-33
2022/07/29 09:12:08;;;;;;;9.13;1.83;;;21.70;99.90;;;;;;4833120;29;20049;-36
2022/07/29 09:14:34;;;;;;;4.65;1.80;;;21.90;99.90;;;;;;4829715;29;20037;-41
2022/07/29 09:17:00;;;;;;;11.55;2.47;;;22.00;99.90;;;;;;4840473;29;20030;-37
2022/07/29 09:19:29;;;;;;;5.65;1.58;;;22.00;99.90;;;;;;4844887;29;20504;-40
2022/07/29 09:21:58;;;;;;;3.92;1.60;;;22.10;99.90;;;;;;4822622;29;20220;-38
2022/07/29 09:24:47;;;;;;;3.70;1.35;;;22.30;99.80;;;;;;4849074;29;20111;-40
2022/07/29 09:27:25;;;;;;;2.33;1.80;;;22.60;99.30;;;;;;4832725;29;20449;-40
2022/07/29 09:30:05;;;;;;;3.78;1.25;;;22.80;99.30;;;;;;4850223;29;20029;-42
2022/07/29 09:32:31;;;;;;;2.60;1.67;;;23.00;98.70;;;;;;4845248;29;20029;-39
2022/07/29 09:35:20;;;;;;;3.45;2.25;;;23.20;98.70;;;;;;4843667;29;20034;-41
2022/07/29 09:37:47;;;;;;;5.10;2.05;;;23.70;97.80;;;;;;4843580;29;20060;-34
2022/07/29 09:40:21;;;;;;;9.23;1.73;;;23.70;97.70;;;;;;4846761;29;20572;-41
2022/07/29 09:42:47;;;;;;;7.85;1.73;;;23.30;97.80;;;;;;4844754;29;20048;-41
2022/07/29 09:45:29;;;;;;;1.90;1.50;;;23.40;98.20;;;;;;4844639;29;20026;-36
2022/07/29 09:47:58;;;;;;;1.60;1.40;;;23.90;98.30;;;;;;4840955;29;20681;-38
2022/07/29 09:50:44;;;;;;;3.75;1.98;;;24.00;97.90;;;;;;4843295;29;20025;-37
2022/07/29 09:53:11;;;;;;;5.75;1.70;;;23.80;97.50;;;;;;4848725;29;20068;-43
2022/07/29 09:56:06;;;;;;;3.85;1.27;;;24.00;97.60;;;;;;4838785;29;20037;-39
2022/07/29 09:58:35;;;;;;;1.50;1.40;;;24.80;96.70;;;;;;4823274;29;20044;-36
2022/07/29 10:01:01;;;;;;;3.50;1.42;;;24.40;97.60;;;;;;4829009;29;20057;-37
2022/07/29 10:03:27;;;;;;;3.17;1.70;;;24.20;97.50;;;;;;4835664;29;20044;-35
2022/07/29 10:06:10;;;;;;;3.67;1.85;;;23.90;97.50;;;;;;4835438;29;20034;-47
2022/07/29 10:08:36;;;;;;;7.13;2.42;;;23.20;98.10;;;;;;4834269;29;20042;-38
2022/07/29 10:11:17;;;;;;;2.70;1.42;;;23.10;98.60;;;;;;4833336;29;20853;-49
2022/07/29 10:13:44;;;;;;;4.60;1.63;;;22.80;98.80;;;;;;4831397;29;20066;-41
2022/07/29 10:16:11;;;;;;;6.72;1.38;;;22.90;99.10;;;;;;4828793;29;20034;-42
2022/07/29 10:18:39;;;;;;;2.95;1.58;;;22.80;98.70;;;;;;4836772;29;20369;-32
2022/07/29 10:21:04;;;;;;;2.25;1.20;;;22.60;99.00;;;;;;4832369;29;20032;-42
2022/07/29 10:23:30;;;;;;;3.60;1.80;;;22.60;98.90;;;;;;4834043;29;20034;-41
2022/07/29 10:25:57;;;;;;;1.80;1.50;;;22.70;98.70;;;;;;4815742;29;20074;-35
2022/07/29 10:28:23;;;;;;;1.93;1.40;;;22.90;98.60;;;;;;4828996;29;20686;-38
2022/07/29 10:30:51;;;;;;;5.65;1.70;;;23.10;98.60;;;;;;4833962;29;20029;-41
2022/07/29 10:33:32;;;;;;;5.38;2.47;;;23.20;98.70;;;;;;4833407;29;20030;-38
2022/07/29 10:36:27;;;;;;;7.03;1.63;;;23.20;98.60;;;;;;4836629;29;20033;-38
2022/07/29 10:39:10;;;;;;;3.75;1.58;;;22.90;99.30;;;;;;4832311;29;20577;-35
2022/07/29 10:41:54;;;;;;;3.38;1.48;;;22.80;99.30;;;;;;4834123;29;20029;-36
2022/07/29 10:44:22;;;;;;;2.72;1.90;;;22.70;99.00;;;;;;4833116;29;20438;-37
2022/07/29 10:46:48;;;;;;;3.15;1.27;;;22.60;99.50;;;;;;4836748;29;20517;-39
2022/07/29 10:49:19;;;;;;;3.67;1.70;;;22.50;99.60;;;;;;4835520;29;20030;-38
2022/07/29 10:51:58;;;;;;;3.42;1.58;;;22.40;99.90;;;;;;4832410;29;20057;-39
2022/07/29 10:54:35;;;;;;;2.33;1.52;;;22.30;99.90;;;;;;4839530;29;20025;-33
2022/07/29 10:57:30;;;;;;;2.03;1.50;;;22.10;99.90;;;;;;4834460;29;20060;-38
2022/07/29 11:00:04;;;;;;;1.90;1.80;;;22.00;99.90;;;;;;4839020;29;20523;-36
2022/07/29 11:02:33;;;;;;;1.98;1.77;;;22.10;99.90;;;;;;4837794;29;20042;-40
2022/07/29 11:04:59;;;;;;;5.57;1.77;;;22.20;99.90;;;;;;4833579;29;20044;-40
2022/07/29 11:07:26;;;;;;;1.75;1.63;;;22.30;99.90;;;;;;4836243;29;20758;-36
2022/07/29 11:10:14;;;;;;;6.57;2.30;;;22.20;99.90;;;;;;4836362;29;20718;-36
2022/07/29 11:12:42;;;;;;;3.95;1.58;;;22.10;99.90;;;;;;4833891;29;20861;-36
2022/07/29 11:15:20;;;;;;;7.65;1.77;;;22.30;99.90;;;;;;4835947;29;20037;-39
2022/07/29 11:17:57;;;;;;;5.57;1.80;;;22.50;99.90;;;;;;4835556;29;20030;-37
2022/07/29 11:20:36;;;;;;;2.97;1.80;;;22.70;99.90;;;;;;4834591;29;20080;-40
2022/07/29 11:23:19;;;;;;;3.83;1.80;;;22.90;99.90;;;;;;4839472;29;20041;-38
2022/07/29 11:25:45;;;;;;;5.10;2.10;;;23.00;99.90;;;;;;4839911;29;20037;-37
2022/07/29 11:28:16;;;;;;;8.85;2.00;;;23.10;99.90;;;;;;4837024;29;20037;-36
2022/07/29 11:30:52;;;;;;;4.30;2.22;;;23.10;99.90;;;;;;4834270;29;20511;-41
2022/07/29 11:33:50;;;;;;;5.70;2.33;;;23.10;99.90;;;;;;4837805;29;20030;-38
2022/07/29 11:36:15;;;;;;;6.45;2.30;;;23.30;99.90;;;;;;4835706;29;20502;-32
2022/07/29 11:38:41;;;;;;;5.20;1.83;;;23.40;99.70;;;;;;4836281;29;20033;-38
2022/07/29 11:41:27;;;;;;;6.35;1.95;;;23.40;99.40;;;;;;4833241;29;20467;-41
2022/07/29 11:43:55;;;;;;;8.73;2.95;;;23.30;99.70;;;;;;4835346;29;20041;-38
2022/07/29 11:46:49;;;;;;;5.13;1.90;;;23.40;99.90;;;;;;4834826;29;20034;-38
2022/07/29 11:49:26;;;;;;;2.65;1.80;;;23.50;99.60;;;;;;4836927;29;20081;-38
2022/07/29 11:51:53;;;;;;;3.42;1.90;;;23.60;99.40;;;;;;4818664;29;20088;-40
2022/07/29 11:54:25;;;;;;;5.00;2.55;;;23.60;99.00;;;;;;4836711;29;20026;-35
2022/07/29 11:56:52;;;;;;;2.85;1.83;;;23.50;99.10;;;;;;4831473;29;20741;-42
2022/07/29 11:59:19;;;;;;;4.73;1.77;;;23.60;99.70;;;;;;4831377;29;20068;-37
2022/07/29 12:01:59;;;;;;;2.42;2.22;;;23.60;99.00;;;;;;4831200;29;20156;-38
2022/07/29 12:04:26;;;;;;;6.00;2.10;;;23.70;99.10;;;;;;4838940;29;20112;-40
2022/07/29 12:06:53;;;;;;;3.75;2.38;;;23.80;98.70;;;;;;4838275;29;20034;-32
2022/07/29 12:09:19;;;;;;;6.20;1.90;;;23.80;98.90;;;;;;4840409;29;20100;-38
2022/07/29 12:11:46;;;;;;;3.50;1.90;;;23.80;98.70;;;;;;4837972;29;20584;-38
2022/07/29 12:14:32;;;;;;;6.82;2.00;;;23.80;98.90;;;;;;4839120;29;20108;-38
2022/07/29 12:16:59;;;;;;;9.68;2.45;;;23.90;98.60;;;;;;4837987;29;20029;-36
2022/07/29 12:19:26;;;;;;;1.92;1.60;;;24.00;98.60;;;;;;4836370;29;20033;-42
2022/07/29 12:21:54;;;;;;;5.07;1.50;;;24.10;98.60;;;;;;4830839;29;20057;-41
2022/07/29 12:24:21;;;;;;;16.02;1.75;;;24.00;98.90;;;;;;4838783;29;20102;-36
2022/07/29 12:26:59;;;;;;;2.17;1.40;;;23.90;98.70;;;;;;4835406;29;20030;-39
2022/07/29 12:29:28;;;;;;;6.93;2.63;;;23.70;99.00;;;;;;4819032;29;20046;-39
2022/07/29 12:31:54;;;;;;;11.35;1.77;;;23.70;99.00;;;;;;4837383;29;20566;-35
2022/07/29 12:34:23;;;;;;;2.55;1.27;;;23.70;99.20;;;;;;4837378;29;20403;-38
2022/07/29 12:36:50;;;;;;;5.85;1.45;;;23.80;99.20;;;;;;4830837;29;20057;-41
2022/07/29 12:39:17;;;;;;;3.38;1.27;;;23.80;99.00;;;;;;4816416;29;20045;-40
2022/07/29 12:41:43;;;;;;;5.33;2.27;;;24.10;98.90;;;;;;4836722;29;20433;-42
2022/07/29 12:44:09;;;;;;;4.40;1.55;;;24.20;98.90;;;;;;4834003;29;20478;-37
2022/07/29 12:46:34;;;;;;;1.55;1.40;;;24.40;98.90;;;;;;4837505;29;20294;-42
2022/07/29 12:49:00;;;;;;;5.55;2.08;;;24.40;99.20;;;;;;4840789;29;20261;-40
2022/07/29 12:51:31;;;;;;;3.78;1.40;;;24.40;98.70;;;;;;4845278;29;20361;-38
2022/07/29 12:54:11;;;;;;;5.15;1.70;;;24.40;98.90;;;;;;4836597;29;20185;-40
2022/07/29 12:56:41;;;;;;;6.22;1.52;;;24.50;98.70;;;;;;4839784;29;20212;-40
2022/07/29 12:59:16;;;;;;;1.70;1.40;;;24.50;98.50;;;;;;4834941;29;20106;-38
2022/07/29 13:01:41;;;;;;;2.85;1.88;;;24.60;98.40;;;;;;4836750;29;20033;-39
2022/07/29 13:04:07;;;;;;;1.60;1.50;;;24.60;98.80;;;;;;4835557;29;20030;-38